Alloa, United Kingdom

5:38 AM GMT on March 02, 2015 (GMT +0000)
Clackmannan Weather Station | Change Station
CLOSE
Current Station
Personal Weather Station
Location: Clackmannan, SCOTLAND
Elevation: 138 ft
Nearby Weather Stations

Elev 138 ft 56.11 °N, 3.75 °W | Updated 25 seconds ago

Partly Cloudy
Partly Cloudy
33.6 °F
Feels Like 34 °F
N
1.3
Wind Variable Wind from East
Gusts 2.2 mph

Today
High -- | Low -- °F
--% Chance of Precip.
Yesterday
High -- | Low -- °F
Precip. -- in
7:05 AM 5:50 PM
Waxing Gibbous, 89% visible
Pressure 29.27 in
Visibility 6.2 miles
Clouds Few 1800 ft
Windchill 34 °F
Dew Point 34 °F
Humidity 98%
Rainfall 0.00 in
Snow Depth Not available.
UV 0.0 out of 12
Pollen Not available.
Air Quality Not available.
Flu Activity Not available.
METAR EGPH 020520Z 22013KT 9999 FEW018 02/M00 Q0991

More Conditions Fewer Conditions

Pressure 29.27 in
Visibility 6.2 miles
Clouds Few 1800 ft
Windchill 34 °F
Dew Point 34 °F
Humidity 98%
Rainfall 0.00 in
Snow Depth Not available.
UV 0.0 out of 12
Pollen Not available.
Air Quality Not available.
Flu Activity Not available.
METAR EGPH 020520Z 22013KT 9999 FEW018 02/M00 Q0991

More Conditions Fewer Conditions

10-Day Weather Forecast

Almanac

Astronomy

Mar. 02, 2015 Rise Set
Actual Time
Civil Twilight
Nautical Twilight
Astronomical Twilight
Moon
Length of Visible Light
Length of Day
Tomorrow will be .
, % of the Moon is Illuminated

Today's Extremes

Country Highs Country Lows

Community

WunderPhotos

Upload Photos

1,801,731 photos uploaded!

WunderBlogs® & News

Nearby

Air Quality

  Air Quality AQ Index Pollutant
Not available.

Snow Depth

Station Depth Elevation

Earthquake Activity

City Distance Mag. Time & Date
Minimum magnitude displayed is 2.5.

Coastal Water Temperatures

Place Temperature

Nearby Weather Stations